createdAt,value
2019-04-16T00:02:10.460Z,98.30
2019-04-16T00:04:26.356Z,98.30
2019-04-16T00:06:35.716Z,98.30
2019-04-16T00:08:44.782Z,98.30
2019-04-16T00:10:49.673Z,98.30
2019-04-16T00:13:13.888Z,98.30
2019-04-16T00:15:15.737Z,98.30
2019-04-16T00:17:17.428Z,98.30
2019-04-16T00:19:19.128Z,98.30
2019-04-16T00:21:32.113Z,98.30
2019-04-16T00:23:56.404Z,98.30
2019-04-16T00:25:58.093Z,98.30
2019-04-16T00:28:00.773Z,98.30
2019-04-16T00:30:05.308Z,98.30
2019-04-16T00:32:26.132Z,98.30
2019-04-16T00:34:27.976Z,98.30
2019-04-16T00:36:29.911Z,98.30
2019-04-16T00:38:40.689Z,98.30
2019-04-16T00:40:35.183Z,98.30
2019-04-16T00:42:36.976Z,98.30
2019-04-16T00:44:38.806Z,98.30
2019-04-16T00:46:40.600Z,98.30
2019-04-16T00:48:42.293Z,98.30
2019-04-16T00:50:44.109Z,98.30
2019-04-16T00:52:45.809Z,98.30
2019-04-16T00:54:47.488Z,98.30
2019-04-16T00:56:49.302Z,98.30
2019-04-16T00:58:52.139Z,98.30
2019-04-16T01:00:54.597Z,98.30
2019-04-16T01:02:56.476Z,98.30
2019-04-16T01:04:58.551Z,98.30
2019-04-16T01:07:00.515Z,98.30
2019-04-16T01:09:04.804Z,98.30
2019-04-16T01:11:06.573Z,98.30
2019-04-16T01:13:08.257Z,98.30
2019-04-16T01:15:10.083Z,98.30
2019-04-16T01:17:12.094Z,98.30
2019-04-16T01:19:13.897Z,98.30
2019-04-16T01:21:15.617Z,98.30
2019-04-16T01:23:18.413Z,98.30
2019-04-16T01:25:23.184Z,98.30
2019-04-16T01:27:31.428Z,98.30
2019-04-16T01:29:33.832Z,98.30
2019-04-16T01:32:02.036Z,98.30
2019-04-16T01:34:28.392Z,98.30
2019-04-16T01:36:36.796Z,98.30
2019-04-16T01:38:49.724Z,98.30
2019-04-16T01:41:11.594Z,98.30
2019-04-16T01:43:13.284Z,98.30
2019-04-16T01:45:15.077Z,98.30
2019-04-16T01:47:16.805Z,98.30
2019-04-16T01:49:18.489Z,98.30
2019-04-16T01:51:20.193Z,98.30
2019-04-16T01:53:22.003Z,98.30
2019-04-16T01:55:25.869Z,98.30
2019-04-16T01:57:28.409Z,98.30
2019-04-16T01:59:35.648Z,98.30
2019-04-16T02:01:34.497Z,98.30
2019-04-16T02:03:36.301Z,98.30
2019-04-16T02:05:38.014Z,98.30
2019-04-16T02:07:39.717Z,98.30
2019-04-16T02:09:41.397Z,98.30
2019-04-16T02:11:43.108Z,98.30
2019-04-16T02:13:46.107Z,98.30
2019-04-16T02:15:50.566Z,98.30
2019-04-16T02:17:52.217Z,98.30
2019-04-16T02:19:53.908Z,98.30
2019-04-16T02:21:55.809Z,98.30
2019-04-16T02:23:57.505Z,98.30
2019-04-16T02:25:59.192Z,98.30
2019-04-16T02:28:01.162Z,98.30
2019-04-16T02:30:05.679Z,98.30
2019-04-16T02:32:07.601Z,98.30
2019-04-16T02:34:09.414Z,98.30
2019-04-16T02:36:11.589Z,98.30
2019-04-16T02:38:14.269Z,98.30
2019-04-16T02:40:18.575Z,98.30
2019-04-16T02:42:19.894Z,98.30
2019-04-16T02:44:21.757Z,98.30
2019-04-16T02:46:27.244Z,98.30
2019-04-16T02:48:27.245Z,98.30
2019-04-16T02:50:40.598Z,98.30
2019-04-16T02:52:56.029Z,98.30
2019-04-16T02:55:17.424Z,98.30
2019-04-16T02:57:44.945Z,98.30
2019-04-16T02:59:47.957Z,98.30
2019-04-16T03:01:57.737Z,98.30
2019-04-16T03:04:06.460Z,98.30
2019-04-16T03:06:08.288Z,98.30
2019-04-16T03:08:10.066Z,98.30
2019-04-16T03:10:13.403Z,98.30
2019-04-16T03:12:17.622Z,98.30
2019-04-16T03:14:19.293Z,98.30
2019-04-16T03:16:31.329Z,98.30
2019-04-16T03:18:37.977Z,98.30
2019-04-16T03:20:39.681Z,98.30
2019-04-16T03:22:41.536Z,98.30
2019-04-16T03:24:43.239Z,98.30
2019-04-16T03:26:47.677Z,98.30
2019-04-16T03:28:48.638Z,98.30
2019-04-16T03:30:50.612Z,98.30
2019-04-16T03:32:52.377Z,98.30
2019-04-16T03:34:55.125Z,98.30
2019-04-16T03:36:58.633Z,98.30
2019-04-16T03:39:00.929Z,98.30
2019-04-16T03:41:02.957Z,98.30
2019-04-16T03:43:04.849Z,98.30
2019-04-16T03:45:09.393Z,98.30
2019-04-16T03:47:10.765Z,98.30
2019-04-16T03:49:12.474Z,98.30
2019-04-16T03:51:14.151Z,98.30
2019-04-16T03:53:17.510Z,98.30
2019-04-16T03:55:19.468Z,98.30
2019-04-16T03:57:21.150Z,98.30
2019-04-16T03:59:23.142Z,98.30
2019-04-16T04:01:24.845Z,98.30
2019-04-16T04:03:26.931Z,98.30
2019-04-16T04:05:28.862Z,98.30
2019-04-16T04:07:30.569Z,98.30
2019-04-16T04:09:32.642Z,98.30
2019-04-16T04:11:34.663Z,98.30
2019-04-16T04:13:36.365Z,98.30
2019-04-16T04:15:38.171Z,98.30
2019-04-16T04:17:40.001Z,98.30
2019-04-16T04:19:43.472Z,98.30
2019-04-16T04:21:45.323Z,98.30
2019-04-16T04:23:47.050Z,98.30
2019-04-16T04:25:49.446Z,98.30
2019-04-16T04:27:51.137Z,98.30
2019-04-16T04:29:53.690Z,98.30
2019-04-16T04:31:56.551Z,98.30
2019-04-16T04:33:58.306Z,98.30
2019-04-16T04:36:00.005Z,98.30
2019-04-16T04:38:04.161Z,98.30
2019-04-16T04:40:05.851Z,98.30
2019-04-16T04:42:07.556Z,98.30
2019-04-16T04:44:09.446Z,98.30
2019-04-16T04:46:14.371Z,98.30
2019-04-16T04:48:14.886Z,98.30
2019-04-16T04:50:16.598Z,98.30
2019-04-16T04:52:18.269Z,98.30
2019-04-16T04:54:22.525Z,98.30
2019-04-16T04:56:27.719Z,98.30
2019-04-16T04:58:27.397Z,98.30
2019-04-16T05:00:29.097Z,98.30
2019-04-16T05:02:30.917Z,98.30
2019-04-16T05:04:53.259Z,98.30
2019-04-16T05:07:00.401Z,98.30
2019-04-16T05:09:04.049Z,98.30
2019-04-16T05:11:05.849Z,98.30
2019-04-16T05:13:08.388Z,98.30
2019-04-16T05:15:10.421Z,98.30
2019-04-16T05:17:12.229Z,98.30
2019-04-16T05:19:15.524Z,98.30
2019-04-16T05:21:19.062Z,98.30
2019-04-16T05:23:24.834Z,98.30
2019-04-16T05:25:24.827Z,98.30
2019-04-16T05:27:29.194Z,98.30
2019-04-16T05:29:30.148Z,98.30
2019-04-16T05:31:31.834Z,98.30
2019-04-16T05:33:34.511Z,98.30
2019-04-16T05:35:38.567Z,98.30
2019-04-16T05:37:40.853Z,98.30
2019-04-16T05:39:42.713Z,98.30
2019-04-16T05:41:44.405Z,98.30
2019-04-16T05:43:46.098Z,98.30
2019-04-16T05:45:47.841Z,98.30
2019-04-16T05:47:49.744Z,98.30
2019-04-16T05:49:54.396Z,98.30
2019-04-16T05:51:56.197Z,98.30
2019-04-16T05:54:01.609Z,98.30
2019-04-16T05:56:09.101Z,98.30
2019-04-16T05:58:11.069Z,98.30
2019-04-16T06:00:28.598Z,98.30
2019-04-16T06:02:41.090Z,98.30
2019-04-16T06:04:42.980Z,98.30
2019-04-16T06:06:44.676Z,98.30
2019-04-16T06:08:46.404Z,98.30
2019-04-16T06:10:50.933Z,98.30
2019-04-16T06:13:03.760Z,98.30
2019-04-16T06:15:14.124Z,98.30
2019-04-16T06:17:38.177Z,98.30
2019-04-16T06:19:56.153Z,98.30
2019-04-16T06:22:05.334Z,98.30
2019-04-16T06:24:15.657Z,98.30
2019-04-16T06:26:26.815Z,98.30
2019-04-16T06:28:59.944Z,98.30
2019-04-16T06:31:14.538Z,98.30
2019-04-16T06:33:24.196Z,98.30
2019-04-16T06:35:44.242Z,98.30
2019-04-16T06:37:56.091Z,98.30
2019-04-16T06:40:08.380Z,98.30
2019-04-16T06:42:22.322Z,98.30
2019-04-16T06:44:29.780Z,98.30
2019-04-16T06:46:50.573Z,98.30
2019-04-16T06:49:20.682Z,98.30
2019-04-16T06:51:48.009Z,98.30
2019-04-16T06:54:12.461Z,98.30
2019-04-16T06:56:37.469Z,98.30
2019-04-16T06:59:04.113Z,98.30
2019-04-16T07:01:16.208Z,98.30
2019-04-16T07:03:32.556Z,98.30
2019-04-16T07:05:47.777Z,98.30
2019-04-16T07:08:37.495Z,98.30
2019-04-16T07:10:44.227Z,98.30
2019-04-16T07:12:38.504Z,98.30
2019-04-16T07:14:41.081Z,98.30
2019-04-16T07:16:43.146Z,98.30
2019-04-16T07:18:44.946Z,98.30
2019-04-16T07:20:46.745Z,98.30
2019-04-16T07:22:52.706Z,98.30
2019-04-16T07:24:55.805Z,98.30
2019-04-16T07:26:57.597Z,98.30
2019-04-16T07:29:16.771Z,98.30
2019-04-16T07:31:40.312Z,98.30
2019-04-16T07:33:52.856Z,98.30
2019-04-16T07:36:20.233Z,98.30
2019-04-16T07:38:35.435Z,98.30
2019-04-16T07:40:58.620Z,98.30
2019-04-16T07:43:34.929Z,98.30
2019-04-16T07:46:11.369Z,98.30
2019-04-16T07:48:22.651Z,98.30
2019-04-16T07:50:54.738Z,98.30
2019-04-16T07:53:28.201Z,98.30
2019-04-16T07:55:35.988Z,98.30
2019-04-16T07:57:37.718Z,98.30
2019-04-16T07:59:39.448Z,98.30
2019-04-16T08:01:44.089Z,97.20
2019-04-16T08:03:44.762Z,96.90
2019-04-16T08:05:46.847Z,96.00
2019-04-16T08:07:49.779Z,97.10
2019-04-16T08:09:52.243Z,96.40
2019-04-16T08:11:54.050Z,95.80
2019-04-16T08:13:55.755Z,94.30
2019-04-16T08:15:57.619Z,93.70
2019-04-16T08:17:59.448Z,93.20
2019-04-16T08:20:01.161Z,92.80
2019-04-16T08:22:03.026Z,93.30
2019-04-16T08:24:06.801Z,93.10
2019-04-16T08:26:12.898Z,93.60
2019-04-16T08:28:12.125Z,93.50
2019-04-16T08:30:14.797Z,93.70
2019-04-16T08:32:17.035Z,93.20
2019-04-16T08:34:18.917Z,93.40
2019-04-16T08:36:20.739Z,93.60
2019-04-16T08:38:25.779Z,93.00
2019-04-16T08:40:26.036Z,91.50
2019-04-16T08:42:29.494Z,91.40
2019-04-16T08:44:35.328Z,90.90
2019-04-16T08:46:35.049Z,92.30
2019-04-16T08:48:36.957Z,92.50
2019-04-16T08:50:38.845Z,91.90
2019-04-16T08:52:41.693Z,92.10
2019-04-16T08:54:44.180Z,91.30
2019-04-16T08:56:45.876Z,92.20
2019-04-16T08:58:47.561Z,90.30
2019-04-16T09:00:49.387Z,88.60
2019-04-16T09:02:51.301Z,88.20
2019-04-16T09:04:52.995Z,88.80
2019-04-16T09:06:54.677Z,88.10
2019-04-16T09:09:18.489Z,86.30
2019-04-16T09:11:23.649Z,86.20
2019-04-16T09:13:27.301Z,84.70
2019-04-16T09:15:32.814Z,84.60
2019-04-16T09:17:38.060Z,84.50
2019-04-16T09:19:42.169Z,84.50
2019-04-16T09:21:44.551Z,84.60
2019-04-16T09:24:08.894Z,84.00
2019-04-16T09:26:23.581Z,83.20
2019-04-16T09:28:32.196Z,82.70
2019-04-16T09:30:59.230Z,81.90
2019-04-16T09:33:24.441Z,82.20
2019-04-16T09:35:28.856Z,82.40
2019-04-16T09:37:37.375Z,82.30
2019-04-16T09:39:57.370Z,82.20
2019-04-16T09:41:59.177Z,81.30
2019-04-16T09:44:01.141Z,79.70
2019-04-16T09:46:10.906Z,80.40
2019-04-16T09:48:07.605Z,80.00
2019-04-16T09:50:11.257Z,80.30
2019-04-16T09:52:13.948Z,81.20
2019-04-16T09:54:15.819Z,80.40
2019-04-16T09:56:30.458Z,79.60
2019-04-16T09:58:34.864Z,80.30
2019-04-16T10:00:36.481Z,79.70
2019-04-16T10:02:38.375Z,79.30
2019-04-16T10:04:40.097Z,80.40
2019-04-16T10:06:41.982Z,79.20
2019-04-16T10:08:45.035Z,78.70
2019-04-16T10:10:47.389Z,78.10
2019-04-16T10:12:49.112Z,77.50
2019-04-16T10:14:51.569Z,78.10
2019-04-16T10:16:53.353Z,77.00
2019-04-16T10:18:55.037Z,76.20
2019-04-16T10:20:56.748Z,75.60
2019-04-16T10:23:00.788Z,75.50
2019-04-16T10:25:11.573Z,75.90
2019-04-16T10:27:20.573Z,75.40
2019-04-16T10:29:22.468Z,75.70
2019-04-16T10:31:24.679Z,74.70
2019-04-16T10:33:26.507Z,75.40
2019-04-16T10:35:28.300Z,76.30
2019-04-16T10:37:30.214Z,74.80
2019-04-16T10:39:37.371Z,74.30
2019-04-16T10:42:04.333Z,74.40
2019-04-16T10:44:25.725Z,73.20
2019-04-16T10:46:45.776Z,73.90
2019-04-16T10:49:05.270Z,73.60
2019-04-16T10:51:15.210Z,71.90
2019-04-16T10:53:34.033Z,71.90
2019-04-16T10:55:50.333Z,72.10
2019-04-16T10:58:26.933Z,70.90
2019-04-16T11:00:34.316Z,70.60
2019-04-16T11:02:45.798Z,70.20
2019-04-16T11:05:19.286Z,69.00
2019-04-16T11:07:22.716Z,69.20
2019-04-16T11:09:24.501Z,69.40
2019-04-16T11:11:26.285Z,68.30
2019-04-16T11:13:30.908Z,67.50
2019-04-16T11:15:32.803Z,67.80
2019-04-16T11:17:34.540Z,67.30
2019-04-16T11:19:36.317Z,67.00
2019-04-16T11:21:38.128Z,66.10
2019-04-16T11:23:40.042Z,66.80
2019-04-16T11:25:41.753Z,67.00
2019-04-16T11:27:43.522Z,67.40
2019-04-16T11:29:45.250Z,68.40
2019-04-16T11:31:47.111Z,66.80
2019-04-16T11:33:49.583Z,66.20
2019-04-16T11:35:53.045Z,67.80
2019-04-16T11:37:54.999Z,67.30
2019-04-16T11:39:56.693Z,65.70
2019-04-16T11:41:58.615Z,65.90
2019-04-16T11:44:14.038Z,65.70
2019-04-16T11:46:04.619Z,65.20
2019-04-16T11:48:07.216Z,61.80
2019-04-16T11:50:09.431Z,63.60
2019-04-16T11:52:11.261Z,63.20
2019-04-16T11:54:12.933Z,63.80
2019-04-16T11:56:14.858Z,62.00
2019-04-16T11:58:27.104Z,62.70
2019-04-16T12:00:40.062Z,62.30
2019-04-16T12:03:02.780Z,60.40
2019-04-16T12:05:13.233Z,60.60
2019-04-16T12:07:25.585Z,62.70
2019-04-16T12:09:36.513Z,60.50
2019-04-16T12:11:49.530Z,59.00
2019-04-16T12:14:10.479Z,58.40
2019-04-16T12:16:47.448Z,58.00
2019-04-16T12:18:55.509Z,57.80
2019-04-16T12:21:23.018Z,57.30
2019-04-16T12:23:47.274Z,58.40
2019-04-16T12:26:09.821Z,60.30
2019-04-16T12:28:18.763Z,60.30
2019-04-16T12:30:52.126Z,58.80
2019-04-16T12:33:11.820Z,57.60
2019-04-16T12:35:34.840Z,57.30
2019-04-16T12:37:55.632Z,56.60
2019-04-16T12:40:23.197Z,55.70
2019-04-16T12:42:30.818Z,54.60
2019-04-16T12:44:46.020Z,54.10
2019-04-16T12:47:06.443Z,55.80
2019-04-16T12:49:36.997Z,56.20
2019-04-16T12:51:53.853Z,55.80
2019-04-16T12:54:25.267Z,54.90
2019-04-16T12:56:47.989Z,54.00
2019-04-16T12:59:00.205Z,56.00
2019-04-16T13:01:13.224Z,55.10
2019-04-16T13:03:25.794Z,53.10
2019-04-16T13:05:31.173Z,53.10
2019-04-16T13:07:52.560Z,52.40
2019-04-16T13:10:03.009Z,52.10
2019-04-16T13:12:27.193Z,50.30
2019-04-16T13:15:01.638Z,50.90
2019-04-16T13:17:08.483Z,52.50
2019-04-16T13:19:29.896Z,52.50
2019-04-16T13:21:34.633Z,54.00
2019-04-16T13:23:42.728Z,53.30
2019-04-16T13:25:55.736Z,57.00
2019-04-16T13:27:58.124Z,47.80
2019-04-16T13:30:01.987Z,47.30
2019-04-16T13:32:04.044Z,47.70
2019-04-16T13:34:06.145Z,48.30
2019-04-16T13:36:07.962Z,51.40
2019-04-16T13:38:10.672Z,53.50
2019-04-16T13:40:15.212Z,53.20
2019-04-16T13:42:17.005Z,54.30
2019-04-16T13:44:19.858Z,57.00
2019-04-16T13:46:21.569Z,55.80
2019-04-16T13:48:31.080Z,56.00
2019-04-16T13:50:52.556Z,55.90
2019-04-16T13:53:00.314Z,58.90
2019-04-16T13:55:20.443Z,58.10
2019-04-16T13:57:22.863Z,56.50
2019-04-16T13:59:56.397Z,56.20
2019-04-16T14:02:18.726Z,56.10
2019-04-16T14:04:20.541Z,56.70
2019-04-16T14:06:22.274Z,55.70
2019-04-16T14:08:23.967Z,56.30
2019-04-16T14:10:25.665Z,58.00
2019-04-16T14:12:41.147Z,57.30
2019-04-16T14:14:31.008Z,55.60
2019-04-16T14:16:32.922Z,55.50
2019-04-16T14:18:34.605Z,55.90
2019-04-16T14:20:36.384Z,57.30
2019-04-16T14:22:38.195Z,57.80
2019-04-16T14:24:39.998Z,56.90
2019-04-16T14:26:41.841Z,56.70
2019-04-16T14:28:52.109Z,55.80
2019-04-16T14:30:48.959Z,56.20
2019-04-16T14:32:50.648Z,56.20
2019-04-16T14:34:57.102Z,54.10
2019-04-16T14:36:58.964Z,53.50
2019-04-16T14:39:12.038Z,54.00
2019-04-16T14:41:15.880Z,54.70
2019-04-16T14:43:20.681Z,54.70
2019-04-16T14:45:25.738Z,53.60
2019-04-16T14:47:29.970Z,53.60
2019-04-16T14:49:31.147Z,54.60
2019-04-16T14:51:32.846Z,54.50
2019-04-16T14:54:03.999Z,53.60
2019-04-16T14:56:11.784Z,52.90
2019-04-16T14:58:30.822Z,53.20
2019-04-16T15:00:50.816Z,52.80
2019-04-16T15:03:01.173Z,52.30
2019-04-16T15:05:15.517Z,53.50
2019-04-16T15:07:46.282Z,53.20
2019-04-16T15:10:06.345Z,51.60
2019-04-16T15:12:22.984Z,52.10
2019-04-16T15:14:32.320Z,51.00
2019-04-16T15:16:53.125Z,51.80
2019-04-16T15:19:09.476Z,51.70
2019-04-16T15:21:34.194Z,51.60
2019-04-16T15:24:02.124Z,48.50
2019-04-16T15:26:15.673Z,44.90
2019-04-16T15:28:42.667Z,47.60
2019-04-16T15:31:00.852Z,49.30
2019-04-16T15:33:18.486Z,49.10
2019-04-16T15:35:25.731Z,48.90
2019-04-16T15:37:37.438Z,49.80
2019-04-16T15:39:43.875Z,50.40
2019-04-16T15:42:03.985Z,50.60
2019-04-16T15:44:23.652Z,50.80
2019-04-16T15:46:48.550Z,51.30
2019-04-16T15:49:09.993Z,51.10
2019-04-16T15:51:18.595Z,51.90
2019-04-16T15:53:27.726Z,51.20
2019-04-16T15:55:34.096Z,51.70
2019-04-16T15:57:53.228Z,52.50
2019-04-16T16:00:13.239Z,52.80
2019-04-16T16:02:26.585Z,52.50
2019-04-16T16:04:38.717Z,52.60
2019-04-16T16:06:44.077Z,53.10
2019-04-16T16:08:50.336Z,53.40
2019-04-16T16:10:58.449Z,54.10
2019-04-16T16:13:00.161Z,53.40
2019-04-16T16:15:02.098Z,54.00
2019-04-16T16:17:05.822Z,54.10
2019-04-16T16:19:10.945Z,54.70
2019-04-16T16:21:11.268Z,55.10
2019-04-16T16:23:12.952Z,55.60
2019-04-16T16:25:14.769Z,55.30
2019-04-16T16:27:16.737Z,56.40
2019-04-16T16:29:18.413Z,56.70
2019-04-16T16:31:20.102Z,56.70
2019-04-16T16:33:22.166Z,57.10
2019-04-16T16:35:24.016Z,57.20
2019-04-16T16:37:25.878Z,57.10
2019-04-16T16:39:27.599Z,57.40
2019-04-16T16:41:29.564Z,57.30
2019-04-16T16:43:31.249Z,57.30
2019-04-16T16:45:44.621Z,57.40
2019-04-16T16:47:46.364Z,57.60
2019-04-16T16:49:48.060Z,57.40
2019-04-16T16:52:09.458Z,57.30
2019-04-16T16:54:19.177Z,57.40
2019-04-16T16:56:26.272Z,57.50
2019-04-16T16:58:41.884Z,57.60
2019-04-16T17:00:56.406Z,57.60
2019-04-16T17:03:08.377Z,57.60
2019-04-16T17:05:12.925Z,57.50
2019-04-16T17:07:17.612Z,57.30
2019-04-16T17:09:30.318Z,57.30
2019-04-16T17:11:33.822Z,57.70
2019-04-16T17:13:35.639Z,57.20
2019-04-16T17:15:37.335Z,57.30
2019-04-16T17:17:39.045Z,56.80
2019-04-16T17:19:40.883Z,56.80
2019-04-16T17:21:42.760Z,57.10
2019-04-16T17:23:44.435Z,57.40
2019-04-16T17:25:47.613Z,57.60
2019-04-16T17:27:51.551Z,57.40
2019-04-16T17:29:55.238Z,57.90
2019-04-16T17:31:56.936Z,57.80
2019-04-16T17:33:58.685Z,57.80
2019-04-16T17:36:00.637Z,57.80
2019-04-16T17:38:03.873Z,58.00
2019-04-16T17:40:16.309Z,57.90
2019-04-16T17:42:19.204Z,57.60
2019-04-16T17:44:33.445Z,57.40
2019-04-16T17:46:43.537Z,57.80
2019-04-16T17:48:59.727Z,57.20
2019-04-16T17:51:23.375Z,57.70
2019-04-16T17:53:31.062Z,57.30
2019-04-16T17:56:01.798Z,57.60
2019-04-16T17:58:13.691Z,57.90
2019-04-16T18:00:37.804Z,58.00
2019-04-16T18:03:07.230Z,57.70
2019-04-16T18:05:15.464Z,57.90
2019-04-16T18:07:35.480Z,57.90
2019-04-16T18:09:43.867Z,58.00
2019-04-16T18:12:08.965Z,58.30
2019-04-16T18:14:48.568Z,58.30
2019-04-16T18:16:56.990Z,58.30
2019-04-16T18:19:07.141Z,58.50
2019-04-16T18:21:27.592Z,58.30
2019-04-16T18:23:56.872Z,58.60
2019-04-16T18:26:27.416Z,58.80
2019-04-16T18:28:34.146Z,62.60
2019-04-16T18:30:48.282Z,68.30
2019-04-16T18:33:08.281Z,71.30
2019-04-16T18:35:29.797Z,72.80
2019-04-16T18:37:41.188Z,73.80
2019-04-16T18:39:50.441Z,74.50
2019-04-16T18:42:19.630Z,75.00
2019-04-16T18:44:35.203Z,75.20
2019-04-16T18:46:43.690Z,75.40
2019-04-16T18:48:46.990Z,75.90
2019-04-16T18:50:48.732Z,76.30
2019-04-16T18:52:50.432Z,76.70
2019-04-16T18:54:52.371Z,77.10
2019-04-16T18:56:54.753Z,77.20
2019-04-16T18:58:56.678Z,77.60
2019-04-16T19:01:07.604Z,78.20
2019-04-16T19:03:14.669Z,79.00
2019-04-16T19:05:13.138Z,79.40
2019-04-16T19:07:15.019Z,80.30
2019-04-16T19:09:20.575Z,80.60
2019-04-16T19:11:21.082Z,81.30
2019-04-16T19:13:25.876Z,81.70
2019-04-16T19:15:27.754Z,82.00
2019-04-16T19:17:29.506Z,82.50
2019-04-16T19:19:31.242Z,82.80
2019-04-16T19:21:33.138Z,83.00
2019-04-16T19:23:34.848Z,83.20
2019-04-16T19:25:38.961Z,83.70
2019-04-16T19:27:40.701Z,84.00
2019-04-16T19:29:44.973Z,84.10
2019-04-16T19:31:48.487Z,84.30
2019-04-16T19:33:52.328Z,84.50
2019-04-16T19:35:54.356Z,84.70
2019-04-16T19:37:56.256Z,85.00
2019-04-16T19:39:57.961Z,84.80
2019-04-16T19:41:59.673Z,85.40
2019-04-16T19:44:06.113Z,85.80
2019-04-16T19:46:05.205Z,85.90
2019-04-16T19:48:06.937Z,85.80
2019-04-16T19:50:09.146Z,86.00
2019-04-16T19:52:10.894Z,86.00
2019-04-16T19:54:12.616Z,85.90
2019-04-16T19:56:15.544Z,86.00
2019-04-16T19:58:17.929Z,86.40
2019-04-16T20:00:22.996Z,86.70
2019-04-16T20:02:23.761Z,87.00
2019-04-16T20:04:25.550Z,87.20
2019-04-16T20:06:27.321Z,87.50
2019-04-16T20:08:34.346Z,87.70
2019-04-16T20:10:32.833Z,87.60
2019-04-16T20:12:34.878Z,87.30
2019-04-16T20:14:36.635Z,86.90
2019-04-16T20:16:38.425Z,86.40
2019-04-16T20:18:50.742Z,86.00
2019-04-16T20:20:43.934Z,85.80
2019-04-16T20:22:45.765Z,85.10
2019-04-16T20:24:47.598Z,84.40
2019-04-16T20:26:49.303Z,83.40
2019-04-16T20:28:51.041Z,83.10
2019-04-16T20:31:00.410Z,82.20
2019-04-16T20:32:56.631Z,82.00
2019-04-16T20:34:58.466Z,82.00
2019-04-16T20:37:00.225Z,82.20
2019-04-16T20:39:02.208Z,81.90
2019-04-16T20:41:04.286Z,82.20
2019-04-16T20:43:06.345Z,82.50
2019-04-16T20:45:08.366Z,82.50
2019-04-16T20:47:10.181Z,82.40
2019-04-16T20:49:16.548Z,82.30
2019-04-16T20:51:19.505Z,82.30
2019-04-16T20:53:21.216Z,82.30
2019-04-16T20:55:23.104Z,82.50
2019-04-16T20:57:25.677Z,82.70
2019-04-16T20:59:28.320Z,82.80
2019-04-16T21:01:35.144Z,83.20
2019-04-16T21:03:33.948Z,83.20
2019-04-16T21:05:36.554Z,83.20
2019-04-16T21:07:38.492Z,83.40
2019-04-16T21:09:40.441Z,83.60
2019-04-16T21:11:42.206Z,83.40
2019-04-16T21:13:43.909Z,83.30
2019-04-16T21:15:45.823Z,83.60
2019-04-16T21:17:47.524Z,84.10
2019-04-16T21:19:49.222Z,84.10
2019-04-16T21:21:55.100Z,84.10
2019-04-16T21:23:55.018Z,84.10
2019-04-16T21:25:56.788Z,84.10
2019-04-16T21:28:04.452Z,84.00
2019-04-16T21:30:12.162Z,84.10
2019-04-16T21:32:31.490Z,84.10
2019-04-16T21:34:36.917Z,84.00
2019-04-16T21:36:56.994Z,84.10
2019-04-16T21:39:21.360Z,83.90
2019-04-16T21:41:25.618Z,84.10
2019-04-16T21:43:26.681Z,84.50
2019-04-16T21:45:28.406Z,84.80
2019-04-16T21:47:30.109Z,84.80
2019-04-16T21:49:38.739Z,84.60
2019-04-16T21:51:37.568Z,84.60
2019-04-16T21:53:39.306Z,84.50
2019-04-16T21:55:41.106Z,84.50
2019-04-16T21:57:45.779Z,84.30
2019-04-16T21:59:46.464Z,84.60
2019-04-16T22:01:48.349Z,84.70
2019-04-16T22:03:57.154Z,84.50
2019-04-16T22:05:58.969Z,84.60
2019-04-16T22:08:00.658Z,84.20
2019-04-16T22:10:03.117Z,84.30
2019-04-16T22:12:05.149Z,84.20
2019-04-16T22:14:07.060Z,84.20
2019-04-16T22:16:08.860Z,84.10
2019-04-16T22:18:10.556Z,84.20
2019-04-16T22:20:12.607Z,84.30
2019-04-16T22:22:14.907Z,84.10
2019-04-16T22:24:19.723Z,84.10
2019-04-16T22:26:21.177Z,83.90
2019-04-16T22:28:22.872Z,83.80
2019-04-16T22:30:24.658Z,83.70
2019-04-16T22:32:27.004Z,84.10
2019-04-16T22:34:30.095Z,83.90
2019-04-16T22:36:31.900Z,83.80
2019-04-16T22:38:34.468Z,84.10
2019-04-16T22:40:42.533Z,84.00
2019-04-16T22:43:06.275Z,83.80
2019-04-16T22:45:18.225Z,84.20
2019-04-16T22:47:24.453Z,83.90
2019-04-16T22:49:26.152Z,84.00
2019-04-16T22:51:27.873Z,84.20
2019-04-16T22:53:29.578Z,84.30
2019-04-16T22:55:31.278Z,84.30
2019-04-16T22:57:33.018Z,84.40
2019-04-16T22:59:39.089Z,84.70
2019-04-16T23:01:41.830Z,84.60
2019-04-16T23:03:43.637Z,84.00
2019-04-16T23:05:45.332Z,84.20
2019-04-16T23:07:47.034Z,83.90
2019-04-16T23:09:49.372Z,84.00
2019-04-16T23:11:52.692Z,84.20
2019-04-16T23:13:54.799Z,84.20
2019-04-16T23:15:57.060Z,83.90
2019-04-16T23:17:58.931Z,84.40
2019-04-16T23:20:00.642Z,84.40
2019-04-16T23:22:02.436Z,84.80
2019-04-16T23:24:04.244Z,85.20
2019-04-16T23:26:05.958Z,84.50
2019-04-16T23:28:10.959Z,84.50
2019-04-16T23:30:11.761Z,84.50
2019-04-16T23:32:13.450Z,84.70
2019-04-16T23:34:15.163Z,84.20
2019-04-16T23:36:16.892Z,84.30
2019-04-16T23:38:18.702Z,84.80
2019-04-16T23:40:21.210Z,85.10
2019-04-16T23:42:22.922Z,84.80
2019-04-16T23:44:35.055Z,84.80
2019-04-16T23:46:53.797Z,84.60
2019-04-16T23:49:33.352Z,84.80
2019-04-16T23:51:40.269Z,85.00
2019-04-16T23:54:01.969Z,85.10
2019-04-16T23:56:14.356Z,85.50
2019-04-16T23:58:20.713Z,85.40
